Weather at Guglielmo Zamboni

Public forecast

Using degrees Celsius for public forecast. Weather courtesy of forecast.io.

Closest aviation weather report (METAR) to Guglielmo Zamboni

Closest report is Bologna Guglielmo Marconi Airport, 11.4 nm (21.2 km) WNW. Retrieved 2021/10/15 21:20 UTC (1 hour ago):

LIPE 152120Z 21006KT CAVOK 09/05 Q1017

Closest aviation forecast (TAF) to Guglielmo Zamboni

Closest forecast is Bologna Guglielmo Marconi Airport, 11.4 nm (21.2 km) WNW. Retrieved 2021/10/15 18:00 UTC (5 hours ago):

TAF LIPE 151700Z 1518/1618 VRB05KT CAVOK